createdAt,value
2018-03-22T00:01:07.266Z,3.67
2018-03-22T00:02:34.331Z,3.67
2018-03-22T00:04:01.568Z,3.68
2018-03-22T00:05:28.879Z,3.70
2018-03-22T00:06:56.075Z,3.72
2018-03-22T00:08:24.149Z,3.73
2018-03-22T00:09:50.380Z,3.74
2018-03-22T00:11:17.431Z,3.75
2018-03-22T00:12:45.559Z,3.75
2018-03-22T00:14:12.745Z,3.75
2018-03-22T00:15:39.778Z,3.75
2018-03-22T00:17:05.991Z,3.76
2018-03-22T00:18:33.245Z,3.75
2018-03-22T00:20:00.506Z,3.75
2018-03-22T00:21:27.647Z,3.74
2018-03-22T00:22:54.840Z,3.74
2018-03-22T00:24:22.111Z,3.73
2018-03-22T00:25:49.253Z,3.72
2018-03-22T00:27:16.523Z,3.71
2018-03-22T00:28:44.634Z,3.70
2018-03-22T00:30:10.742Z,3.70
2018-03-22T00:31:39.026Z,3.70
2018-03-22T00:33:06.137Z,3.68
2018-03-22T00:34:32.326Z,3.67
2018-03-22T00:35:59.441Z,3.66
2018-03-22T00:37:26.418Z,3.64
2018-03-22T00:38:53.688Z,3.64
2018-03-22T00:40:21.897Z,3.64
2018-03-22T00:41:47.920Z,3.63
2018-03-22T00:43:15.096Z,3.62
2018-03-22T00:44:43.305Z,3.61
2018-03-22T00:46:09.398Z,3.60
2018-03-22T00:47:37.364Z,3.58
2018-03-22T00:49:04.612Z,3.57
2018-03-22T00:50:31.513Z,3.56
2018-03-22T00:51:58.793Z,3.54
2018-03-22T00:53:24.949Z,3.53
2018-03-22T00:54:52.197Z,3.53
2018-03-22T00:56:19.411Z,3.51
2018-03-22T00:57:46.612Z,3.50
2018-03-22T00:59:13.740Z,3.50
2018-03-22T01:00:40.917Z,3.50
2018-03-22T01:02:08.131Z,3.49
2018-03-22T01:03:35.209Z,3.50
2018-03-22T01:05:02.298Z,3.51
2018-03-22T01:06:29.617Z,3.49
2018-03-22T01:07:56.714Z,3.46
2018-03-22T01:09:23.989Z,3.46
2018-03-22T01:10:51.164Z,3.46
2018-03-22T01:12:17.981Z,3.47
2018-03-22T01:13:46.057Z,3.47
2018-03-22T01:15:13.226Z,3.48
2018-03-22T01:16:39.094Z,3.48
2018-03-22T01:18:06.114Z,3.48
2018-03-22T01:19:33.444Z,3.49
2018-03-22T01:21:01.662Z,3.49
2018-03-22T01:22:27.333Z,3.49
2018-03-22T01:23:55.275Z,3.48
2018-03-22T01:25:22.455Z,3.48
2018-03-22T01:26:49.580Z,3.46
2018-03-22T01:28:15.812Z,3.46
2018-03-22T01:29:43.985Z,3.45
2018-03-22T01:31:11.040Z,3.46
2018-03-22T01:32:38.445Z,3.46
2018-03-22T01:34:05.395Z,3.46
2018-03-22T01:35:31.437Z,3.44
2018-03-22T01:36:59.357Z,3.43
2018-03-22T01:38:26.461Z,3.42
2018-03-22T01:39:52.262Z,3.42
2018-03-22T01:41:19.546Z,3.40
2018-03-22T01:42:47.681Z,3.39
2018-03-22T01:44:13.735Z,3.40
2018-03-22T01:45:41.754Z,3.39
2018-03-22T01:47:09.032Z,3.38
2018-03-22T01:48:35.216Z,3.38
2018-03-22T01:50:02.343Z,3.38
2018-03-22T01:51:29.320Z,3.38
2018-03-22T01:52:56.547Z,3.37
2018-03-22T01:54:24.826Z,3.38
2018-03-22T01:55:51.901Z,3.38
2018-03-22T01:57:18.090Z,3.38
2018-03-22T01:58:45.257Z,3.39
2018-03-22T02:00:12.409Z,3.38
2018-03-22T02:01:39.302Z,3.38
2018-03-22T02:03:06.407Z,3.38
2018-03-22T02:04:33.502Z,3.38
2018-03-22T02:06:01.640Z,3.37
2018-03-22T02:07:28.835Z,3.37
2018-03-22T02:08:54.886Z,3.37
2018-03-22T02:10:22.033Z,3.36
2018-03-22T02:11:50.216Z,3.37
2018-03-22T02:13:16.311Z,3.37
2018-03-22T02:14:43.481Z,3.37
2018-03-22T02:16:11.326Z,3.37
2018-03-22T02:17:37.117Z,3.37
2018-03-22T02:19:05.239Z,3.37
2018-03-22T02:20:32.433Z,3.37
2018-03-22T02:21:58.737Z,3.37
2018-03-22T02:23:26.934Z,3.38
2018-03-22T02:24:54.153Z,3.38
2018-03-22T02:26:20.266Z,3.37
2018-03-22T02:27:47.478Z,3.38
2018-03-22T02:29:14.265Z,3.38
2018-03-22T02:30:41.455Z,3.38
2018-03-22T02:32:09.906Z,3.39
2018-03-22T02:33:37.094Z,3.39
2018-03-22T02:35:03.945Z,3.38
2018-03-22T02:36:31.037Z,3.39
2018-03-22T02:37:57.239Z,3.39
2018-03-22T02:39:25.171Z,3.39
2018-03-22T02:40:52.514Z,3.38
2018-03-22T02:42:18.430Z,3.38
2018-03-22T02:43:46.879Z,3.38
2018-03-22T02:45:14.108Z,3.38
2018-03-22T02:46:41.313Z,3.38
2018-03-22T02:48:07.527Z,3.38
2018-03-22T02:49:35.712Z,3.38
2018-03-22T02:51:01.725Z,3.39
2018-03-22T02:52:28.606Z,3.39
2018-03-22T02:53:55.723Z,3.39
2018-03-22T02:55:23.700Z,3.40
2018-03-22T02:56:49.521Z,3.39
2018-03-22T02:58:17.592Z,3.40
2018-03-22T02:59:44.801Z,3.40
2018-03-22T03:01:10.673Z,3.38
2018-03-22T03:02:38.791Z,3.36
2018-03-22T03:04:04.971Z,3.36
2018-03-22T03:05:33.218Z,3.38
2018-03-22T03:06:59.047Z,3.39
2018-03-22T03:08:26.276Z,3.39
2018-03-22T03:09:53.602Z,3.40
2018-03-22T03:11:21.829Z,3.42
2018-03-22T03:12:47.919Z,3.43
2018-03-22T03:14:14.874Z,3.43
2018-03-22T03:15:43.199Z,3.42
2018-03-22T03:17:10.254Z,3.41
2018-03-22T03:18:36.118Z,3.40
2018-03-22T03:20:04.373Z,3.39
2018-03-22T03:21:31.770Z,3.38
2018-03-22T03:22:57.821Z,3.36
2018-03-22T03:24:25.907Z,3.35
2018-03-22T03:25:53.032Z,3.32
2018-03-22T03:27:19.265Z,3.29
2018-03-22T03:28:46.145Z,3.26
2018-03-22T03:30:13.104Z,3.22
2018-03-22T03:31:40.100Z,3.20
2018-03-22T03:33:08.280Z,3.18
2018-03-22T03:34:34.387Z,3.14
2018-03-22T03:36:02.699Z,3.10
2018-03-22T03:37:29.341Z,3.05
2018-03-22T03:38:56.480Z,3.00
2018-03-22T03:40:23.644Z,2.97
2018-03-22T03:41:50.624Z,2.91
2018-03-22T03:43:16.643Z,2.88
2018-03-22T03:44:43.773Z,2.85
2018-03-22T03:46:10.749Z,2.82
2018-03-22T03:47:38.735Z,2.79
2018-03-22T03:49:05.908Z,2.77
2018-03-22T03:50:32.879Z,2.75
2018-03-22T03:52:00.147Z,2.73
2018-03-22T03:53:26.441Z,2.70
2018-03-22T03:54:53.716Z,2.67
2018-03-22T03:56:20.678Z,2.66
2018-03-22T03:57:47.950Z,2.64
2018-03-22T03:59:14.727Z,2.63
2018-03-22T04:00:41.640Z,2.59
2018-03-22T04:02:09.729Z,2.57
2018-03-22T04:03:35.938Z,2.53
2018-03-22T04:05:03.094Z,2.51
2018-03-22T04:06:30.340Z,2.45
2018-03-22T04:07:57.610Z,2.43
2018-03-22T04:09:25.766Z,2.40
2018-03-22T04:10:52.993Z,2.39
2018-03-22T04:12:20.032Z,2.37
2018-03-22T04:13:46.198Z,2.37
2018-03-22T04:15:14.364Z,2.37
2018-03-22T04:16:40.465Z,2.36
2018-03-22T04:18:08.717Z,2.36
2018-03-22T04:19:35.906Z,2.36
2018-03-22T04:21:02.164Z,2.36
2018-03-22T04:22:30.316Z,2.36
2018-03-22T04:23:56.598Z,2.37
2018-03-22T04:25:23.669Z,2.37
2018-03-22T04:26:51.846Z,2.37
2018-03-22T04:28:18.924Z,2.37
2018-03-22T04:29:45.180Z,2.37
2018-03-22T04:31:12.974Z,2.37
2018-03-22T04:32:38.854Z,2.38
2018-03-22T04:34:05.870Z,2.36
2018-03-22T04:35:34.059Z,2.36
2018-03-22T04:37:00.123Z,2.36
2018-03-22T04:38:28.283Z,2.37
2018-03-22T04:39:54.453Z,2.36
2018-03-22T04:41:21.684Z,2.36
2018-03-22T04:42:48.731Z,2.34
2018-03-22T04:44:16.964Z,2.32
2018-03-22T04:45:44.171Z,2.31
2018-03-22T04:47:11.441Z,2.30
2018-03-22T04:48:37.686Z,2.29
2018-03-22T04:50:05.731Z,2.30
2018-03-22T04:51:31.901Z,2.28
2018-03-22T04:52:59.034Z,2.28
2018-03-22T04:54:26.207Z,2.26
2018-03-22T04:55:53.459Z,2.25
2018-03-22T04:57:21.522Z,2.23
2018-03-22T04:58:47.512Z,2.21
2018-03-22T05:00:14.597Z,2.19
2018-03-22T05:01:41.739Z,2.17
2018-03-22T05:03:09.606Z,2.17
2018-03-22T05:04:36.857Z,2.15
2018-03-22T05:06:02.838Z,2.15
2018-03-22T05:07:31.077Z,2.15
2018-03-22T05:08:57.192Z,2.15
2018-03-22T05:10:24.382Z,2.14
2018-03-22T05:11:52.575Z,2.13
2018-03-22T05:13:19.495Z,2.12
2018-03-22T05:14:46.573Z,2.12
2018-03-22T05:16:12.666Z,2.12
2018-03-22T05:17:39.841Z,2.12
2018-03-22T05:19:07.072Z,2.12
2018-03-22T05:20:35.272Z,2.11
2018-03-22T05:22:02.556Z,2.10
2018-03-22T05:23:29.551Z,2.08
2018-03-22T05:24:56.851Z,2.08
2018-03-22T05:26:24.022Z,2.08
2018-03-22T05:27:51.226Z,2.08
2018-03-22T05:29:18.362Z,2.08
2018-03-22T05:30:44.575Z,2.09
2018-03-22T05:32:12.724Z,2.09
2018-03-22T05:33:45.025Z,2.10
2018-03-22T05:35:06.230Z,2.09
2018-03-22T05:36:33.478Z,2.10
2018-03-22T05:38:01.767Z,2.11
2018-03-22T05:39:28.876Z,2.11
2018-03-22T05:40:55.979Z,2.11
2018-03-22T05:42:23.175Z,2.12
2018-03-22T05:43:50.259Z,2.12
2018-03-22T05:45:17.227Z,2.13
2018-03-22T05:46:44.407Z,2.13
2018-03-22T05:48:10.449Z,2.14
2018-03-22T05:49:38.630Z,2.14
2018-03-22T05:51:05.764Z,2.11
2018-03-22T05:52:32.936Z,2.10
2018-03-22T05:54:00.172Z,2.09
2018-03-22T05:55:26.190Z,2.07
2018-03-22T05:56:54.340Z,2.06
2018-03-22T05:58:20.368Z,2.06
2018-03-22T05:59:48.502Z,2.05
2018-03-22T06:01:15.596Z,2.05
2018-03-22T06:02:42.402Z,2.05
2018-03-22T06:04:09.425Z,2.05
2018-03-22T06:05:35.437Z,2.05
2018-03-22T06:07:02.748Z,2.05
2018-03-22T06:08:30.898Z,2.05
2018-03-22T06:09:56.961Z,2.05
2018-03-22T06:11:25.250Z,2.05
2018-03-22T06:12:52.408Z,2.04
2018-03-22T06:14:19.537Z,2.03
2018-03-22T06:15:46.677Z,2.03
2018-03-22T06:17:12.661Z,2.03
2018-03-22T06:18:40.656Z,2.03
2018-03-22T06:20:06.841Z,2.03
2018-03-22T06:21:33.758Z,2.02
2018-03-22T06:23:00.843Z,2.02
2018-03-22T06:24:28.865Z,2.01
2018-03-22T06:25:56.204Z,2.00
2018-03-22T06:27:22.440Z,2.00
2018-03-22T06:28:50.468Z,2.02
2018-03-22T06:30:17.672Z,2.02
2018-03-22T06:31:43.757Z,2.03
2018-03-22T06:33:10.874Z,2.04
2018-03-22T06:34:39.104Z,2.05
2018-03-22T06:36:06.231Z,2.05
2018-03-22T06:37:32.902Z,2.06
2018-03-22T06:38:59.078Z,2.06
2018-03-22T06:40:27.182Z,2.08
2018-03-22T06:41:54.238Z,2.08
2018-03-22T06:43:20.530Z,2.08
2018-03-22T06:44:47.375Z,2.10
2018-03-22T06:46:14.384Z,2.11
2018-03-22T06:47:41.618Z,2.13
2018-03-22T06:49:08.695Z,2.15
2018-03-22T06:50:35.328Z,2.16
2018-03-22T06:52:02.449Z,2.16
2018-03-22T06:53:30.611Z,2.16
2018-03-22T06:54:57.747Z,2.15
2018-03-22T06:56:23.638Z,2.15
2018-03-22T06:57:51.915Z,2.14
2018-03-22T06:59:17.713Z,2.14
2018-03-22T07:00:44.629Z,2.13
2018-03-22T07:02:12.586Z,2.14
2018-03-22T07:03:40.097Z,2.13
2018-03-22T07:05:07.072Z,2.13
2018-03-22T07:06:34.327Z,2.12
2018-03-22T07:08:01.305Z,2.14
2018-03-22T07:09:27.233Z,2.15
2018-03-22T07:10:55.392Z,2.17
2018-03-22T07:12:22.681Z,2.18
2018-03-22T07:13:49.733Z,2.20
2018-03-22T07:15:16.929Z,2.21
2018-03-22T07:16:42.882Z,2.24
2018-03-22T07:18:11.011Z,2.25
2018-03-22T07:19:37.179Z,2.27
2018-03-22T07:21:04.436Z,2.29
2018-03-22T07:22:32.371Z,2.32
2018-03-22T07:23:59.659Z,2.32
2018-03-22T07:25:25.746Z,2.34
2018-03-22T07:26:52.962Z,2.60
2018-03-22T07:28:19.986Z,2.40
2018-03-22T07:29:48.076Z,2.39
2018-03-22T07:31:14.221Z,2.41
2018-03-22T07:32:41.279Z,2.40
2018-03-22T07:34:08.437Z,2.42
2018-03-22T07:35:36.629Z,2.43
2018-03-22T07:37:03.742Z,2.44
2018-03-22T07:38:29.895Z,2.45
2018-03-22T07:39:57.082Z,2.46
2018-03-22T07:41:25.260Z,2.45
2018-03-22T07:42:51.531Z,2.46
2018-03-22T07:44:18.571Z,2.48
2018-03-22T07:45:46.758Z,2.53
2018-03-22T07:47:13.808Z,2.56
2018-03-22T07:48:39.841Z,2.59
2018-03-22T07:50:08.064Z,2.61
2018-03-22T07:51:35.356Z,2.62
2018-03-22T07:53:01.482Z,2.63
2018-03-22T07:54:28.805Z,2.65
2018-03-22T07:55:56.773Z,2.64
2018-03-22T07:57:22.629Z,2.65
2018-03-22T07:58:49.843Z,2.60
2018-03-22T08:00:18.107Z,2.52
2018-03-22T08:01:44.915Z,2.52
2018-03-22T08:03:10.771Z,2.53
2018-03-22T08:04:37.960Z,2.47
2018-03-22T08:06:06.035Z,2.39
2018-03-22T08:07:31.851Z,2.38
2018-03-22T08:08:58.976Z,2.42
2018-03-22T08:10:27.658Z,2.43
2018-03-22T08:11:54.770Z,2.46
2018-03-22T08:13:20.650Z,2.53
2018-03-22T08:14:48.802Z,2.57
2018-03-22T08:16:15.877Z,2.62
2018-03-22T08:17:42.045Z,2.68
2018-03-22T08:19:09.831Z,2.67
2018-03-22T08:20:36.716Z,2.65
2018-03-22T08:22:02.847Z,2.60
2018-03-22T08:23:30.110Z,2.63
2018-03-22T08:24:58.266Z,2.65
2018-03-22T08:26:25.438Z,2.69
2018-03-22T08:27:52.664Z,2.72
2018-03-22T08:29:18.735Z,2.70
2018-03-22T08:30:45.939Z,2.66
2018-03-22T08:32:13.362Z,2.64
2018-03-22T08:33:41.405Z,2.59
2018-03-22T08:35:07.674Z,2.56
2018-03-22T08:36:34.701Z,2.56
2018-03-22T08:38:02.029Z,2.58
2018-03-22T08:39:29.253Z,2.62
2018-03-22T08:40:56.676Z,2.60
2018-03-22T08:42:24.035Z,2.58
2018-03-22T08:43:50.865Z,2.65
2018-03-22T08:45:18.128Z,2.72
2018-03-22T08:46:46.274Z,2.77
2018-03-22T08:48:13.499Z,2.77
2018-03-22T08:49:40.451Z,2.80
2018-03-22T08:51:06.652Z,2.83
2018-03-22T08:52:36.824Z,2.84
2018-03-22T08:54:00.938Z,2.88
2018-03-22T08:55:29.106Z,2.88
2018-03-22T08:56:55.499Z,2.89
2018-03-22T08:58:23.518Z,2.92
2018-03-22T08:59:50.597Z,2.97
2018-03-22T09:01:16.884Z,2.96
2018-03-22T09:02:44.023Z,2.91
2018-03-22T09:04:11.251Z,2.92
2018-03-22T09:05:38.404Z,2.93
2018-03-22T09:07:05.420Z,2.96
2018-03-22T09:08:32.551Z,2.99
2018-03-22T09:09:59.734Z,3.01
2018-03-22T09:11:26.809Z,3.00
2018-03-22T09:12:54.982Z,3.02
2018-03-22T09:14:20.928Z,3.03
2018-03-22T09:15:48.141Z,3.08
2018-03-22T09:17:16.181Z,3.10
2018-03-22T09:18:43.192Z,3.10
2018-03-22T09:20:09.091Z,3.07
2018-03-22T09:21:36.267Z,3.08
2018-03-22T09:23:04.442Z,3.08
2018-03-22T09:24:30.642Z,3.08
2018-03-22T09:25:57.832Z,3.06
2018-03-22T09:27:25.008Z,3.03
2018-03-22T09:28:53.239Z,3.03
2018-03-22T09:30:20.470Z,3.04
2018-03-22T09:31:46.556Z,3.08
2018-03-22T09:33:13.682Z,3.15
2018-03-22T09:34:41.806Z,3.16
2018-03-22T09:36:09.020Z,3.19
2018-03-22T09:37:35.214Z,3.20
2018-03-22T09:39:02.464Z,3.24
2018-03-22T09:40:29.487Z,3.23
2018-03-22T09:41:56.607Z,3.23
2018-03-22T09:43:24.963Z,3.18
2018-03-22T09:44:51.171Z,3.18
2018-03-22T09:46:18.424Z,3.22
2018-03-22T09:47:45.719Z,3.27
2018-03-22T09:49:12.947Z,3.28
2018-03-22T09:50:40.093Z,3.25
2018-03-22T09:52:07.301Z,3.28
2018-03-22T09:53:34.542Z,3.31
2018-03-22T09:55:01.723Z,3.36
2018-03-22T09:56:28.919Z,3.42
2018-03-22T09:57:57.204Z,3.42
2018-03-22T09:59:24.453Z,3.41
2018-03-22T10:00:50.613Z,3.37
2018-03-22T10:02:17.816Z,3.39
2018-03-22T10:03:44.852Z,3.49
2018-03-22T10:05:13.028Z,3.51
2018-03-22T10:06:38.766Z,3.50
2018-03-22T10:08:06.850Z,3.50
2018-03-22T10:09:33.049Z,3.53
2018-03-22T10:11:00.436Z,3.52
2018-03-22T10:12:27.825Z,3.56
2018-03-22T10:13:55.957Z,3.62
2018-03-22T10:15:23.076Z,3.67
2018-03-22T10:16:49.215Z,3.67
2018-03-22T10:18:16.354Z,3.65
2018-03-22T10:19:44.586Z,3.72
2018-03-22T10:21:10.725Z,3.72
2018-03-22T10:22:37.998Z,3.78
2018-03-22T10:24:05.278Z,3.81
2018-03-22T10:25:33.418Z,3.81
2018-03-22T10:26:59.794Z,3.77
2018-03-22T10:28:26.899Z,3.81
2018-03-22T10:29:54.192Z,3.84
2018-03-22T10:31:22.447Z,3.82
2018-03-22T10:32:49.796Z,3.81
2018-03-22T10:34:15.708Z,3.78
2018-03-22T10:35:42.905Z,3.79
2018-03-22T10:37:09.925Z,3.82
2018-03-22T10:38:37.222Z,3.85
2018-03-22T10:40:04.521Z,3.89
2018-03-22T10:41:32.749Z,3.84
2018-03-22T10:42:58.925Z,3.77
2018-03-22T10:44:27.404Z,3.75
2018-03-22T10:45:53.578Z,3.71
2018-03-22T10:47:21.902Z,3.69
2018-03-22T10:48:48.014Z,3.71
2018-03-22T10:50:15.172Z,3.73
2018-03-22T10:51:42.230Z,3.76
2018-03-22T10:53:09.414Z,3.77
2018-03-22T10:54:36.666Z,3.77
2018-03-22T10:56:04.010Z,3.82
2018-03-22T10:57:31.218Z,3.83
2018-03-22T10:58:59.400Z,3.83
2018-03-22T11:00:26.473Z,3.89
2018-03-22T11:01:52.642Z,3.86
2018-03-22T11:03:19.891Z,3.92
2018-03-22T11:04:47.222Z,3.97
2018-03-22T11:06:15.214Z,4.01
2018-03-22T11:07:41.266Z,4.02
2018-03-22T11:09:08.534Z,4.06
2018-03-22T11:10:35.786Z,4.01
2018-03-22T11:12:04.202Z,4.04
2018-03-22T11:13:30.420Z,4.04
2018-03-22T11:14:58.606Z,4.03
2018-03-22T11:16:24.711Z,4.00
2018-03-22T11:17:52.977Z,4.03
2018-03-22T11:19:19.154Z,4.01
2018-03-22T11:20:47.514Z,3.99
2018-03-22T11:22:14.562Z,4.03
2018-03-22T11:23:40.762Z,4.03
2018-03-22T11:25:08.978Z,4.00
2018-03-22T11:26:35.269Z,4.01
2018-03-22T11:28:02.542Z,4.01
2018-03-22T11:29:29.753Z,4.04
2018-03-22T11:30:57.198Z,4.04
2018-03-22T11:32:24.498Z,4.05
2018-03-22T11:33:52.831Z,4.08
2018-03-22T11:35:18.974Z,4.13
2018-03-22T11:36:46.272Z,4.13
2018-03-22T11:38:14.485Z,4.11
2018-03-22T11:39:40.639Z,4.11
2018-03-22T11:41:07.783Z,4.13
2018-03-22T11:42:36.016Z,4.13
2018-03-22T11:44:02.183Z,4.13
2018-03-22T11:45:29.544Z,4.14
2018-03-22T11:46:57.870Z,4.17
2018-03-22T11:48:25.223Z,4.20
2018-03-22T11:49:51.402Z,4.16
2018-03-22T11:51:19.610Z,4.18
2018-03-22T11:52:45.796Z,4.17
2018-03-22T11:54:13.925Z,4.16
2018-03-22T11:55:41.196Z,4.18
2018-03-22T11:57:07.229Z,4.21
2018-03-22T11:58:35.602Z,4.24
2018-03-22T12:00:07.769Z,4.28
2018-03-22T12:01:28.938Z,4.30
2018-03-22T12:02:56.243Z,4.29
2018-03-22T12:04:23.451Z,4.26
2018-03-22T12:05:50.572Z,4.24
2018-03-22T12:07:17.825Z,4.23
2018-03-22T12:08:44.919Z,4.27
2018-03-22T12:10:11.948Z,4.34
2018-03-22T12:11:38.867Z,4.37
2018-03-22T12:13:06.112Z,4.40
2018-03-22T12:14:33.387Z,4.44
2018-03-22T12:16:01.678Z,4.46
2018-03-22T12:17:29.040Z,4.46
2018-03-22T12:18:55.157Z,4.43
2018-03-22T12:20:23.424Z,4.44
2018-03-22T12:21:50.632Z,4.41
2018-03-22T12:23:16.879Z,4.43
2018-03-22T12:24:44.049Z,4.47
2018-03-22T12:26:12.317Z,4.47
2018-03-22T12:27:39.609Z,4.51
2018-03-22T12:29:05.898Z,4.54
2018-03-22T12:30:34.098Z,4.62
2018-03-22T12:32:00.400Z,4.67
2018-03-22T12:33:27.768Z,4.69
2018-03-22T12:34:55.136Z,4.75
2018-03-22T12:36:23.465Z,4.77
2018-03-22T12:37:49.666Z,4.72
2018-03-22T12:39:16.926Z,4.72
2018-03-22T12:40:45.221Z,4.77
2018-03-22T12:42:12.238Z,4.78
2018-03-22T12:43:38.482Z,4.81
2018-03-22T12:45:05.697Z,4.86
2018-03-22T12:46:33.766Z,4.90
2018-03-22T12:48:00.945Z,4.95
2018-03-22T12:49:27.434Z,5.02
2018-03-22T12:50:54.759Z,5.09
2018-03-22T12:52:22.959Z,5.16
2018-03-22T12:53:50.201Z,5.20
2018-03-22T12:55:16.497Z,5.21
2018-03-22T12:56:44.603Z,5.20
2018-03-22T12:58:11.738Z,5.18
2018-03-22T12:59:38.007Z,5.13
2018-03-22T13:01:06.371Z,5.14
2018-03-22T13:02:32.452Z,5.15
2018-03-22T13:03:59.717Z,5.13
2018-03-22T13:05:26.892Z,5.13
2018-03-22T13:06:54.075Z,5.14
2018-03-22T13:08:22.510Z,5.12
2018-03-22T13:09:49.632Z,5.12
2018-03-22T13:11:15.868Z,5.14
2018-03-22T13:12:43.121Z,5.14
2018-03-22T13:14:11.408Z,5.17
2018-03-22T13:15:37.682Z,5.21
2018-03-22T13:17:05.825Z,5.24
2018-03-22T13:18:32.014Z,5.28
2018-03-22T13:20:00.353Z,5.32
2018-03-22T13:21:27.665Z,5.35
2018-03-22T13:22:54.740Z,5.38
2018-03-22T13:24:20.871Z,5.39
2018-03-22T13:25:47.948Z,5.41
2018-03-22T13:27:15.182Z,5.43
2018-03-22T13:28:42.405Z,5.43
2018-03-22T13:30:09.342Z,5.43
2018-03-22T13:31:36.694Z,5.45
2018-03-22T13:33:05.103Z,5.46
2018-03-22T13:34:31.313Z,5.47
2018-03-22T13:35:58.417Z,5.47
2018-03-22T13:37:25.785Z,5.49
2018-03-22T13:38:53.031Z,5.52
2018-03-22T13:40:21.368Z,5.53
2018-03-22T13:41:48.545Z,5.55
2018-03-22T13:43:14.683Z,5.55
2018-03-22T13:44:42.795Z,5.53
2018-03-22T13:46:09.060Z,5.53
2018-03-22T13:47:37.291Z,5.55
2018-03-22T13:49:04.573Z,5.56
2018-03-22T13:50:31.828Z,5.55
2018-03-22T13:51:59.068Z,5.51
2018-03-22T13:53:25.303Z,5.49
2018-03-22T13:54:52.691Z,5.47
2018-03-22T13:56:20.773Z,5.46
2018-03-22T13:57:47.826Z,5.47
2018-03-22T13:59:14.131Z,5.42
2018-03-22T14:00:42.114Z,5.38
2018-03-22T14:02:09.362Z,5.40
2018-03-22T14:03:35.751Z,5.42
2018-03-22T14:05:03.076Z,5.39
2018-03-22T14:06:30.433Z,5.34
2018-03-22T14:07:57.780Z,5.33
2018-03-22T14:09:25.998Z,5.27
2018-03-22T14:10:52.097Z,5.24
2018-03-22T14:12:19.321Z,5.21
2018-03-22T14:13:46.642Z,5.20
2018-03-22T14:15:13.887Z,5.21
2018-03-22T14:16:41.095Z,5.22
2018-03-22T14:18:08.573Z,5.23
2018-03-22T14:19:35.640Z,5.21
2018-03-22T14:21:03.735Z,5.20
2018-03-22T14:22:30.037Z,5.18
2018-03-22T14:23:57.344Z,5.14
2018-03-22T14:25:24.736Z,5.08
2018-03-22T14:26:51.963Z,5.05
2018-03-22T14:28:20.309Z,5.04
2018-03-22T14:29:46.407Z,5.02
2018-03-22T14:31:14.720Z,5.02
2018-03-22T14:32:40.728Z,5.00
2018-03-22T14:34:07.939Z,5.00
2018-03-22T14:35:35.126Z,5.00
2018-03-22T14:37:03.458Z,5.05
2018-03-22T14:38:30.772Z,5.09
2018-03-22T14:39:57.071Z,5.13
2018-03-22T14:41:24.178Z,5.14
2018-03-22T14:42:51.139Z,5.13
2018-03-22T14:44:18.216Z,5.12
2018-03-22T14:45:45.592Z,5.12
2018-03-22T14:47:13.763Z,5.07
2018-03-22T14:48:39.903Z,5.04
2018-03-22T14:50:07.020Z,5.06
2018-03-22T14:51:34.292Z,5.10
2018-03-22T14:53:01.504Z,5.12
2018-03-22T14:54:28.588Z,5.12
2018-03-22T14:55:55.930Z,5.09
2018-03-22T14:57:23.009Z,5.09
2018-03-22T14:58:50.038Z,5.12
2018-03-22T15:00:17.305Z,5.15
2018-03-22T15:01:44.766Z,5.16
2018-03-22T15:03:11.880Z,5.17
2018-03-22T15:04:40.228Z,5.21
2018-03-22T15:06:07.323Z,5.19
2018-03-22T15:07:34.515Z,5.22
2018-03-22T15:09:01.650Z,5.27
2018-03-22T15:10:28.003Z,5.29
2018-03-22T15:11:56.300Z,5.33
2018-03-22T15:13:22.145Z,5.34
2018-03-22T15:14:49.378Z,5.31
2018-03-22T15:16:17.730Z,5.28
2018-03-22T15:17:44.864Z,5.24
2018-03-22T15:19:10.938Z,5.25
2018-03-22T15:20:38.123Z,5.27
2018-03-22T15:22:05.486Z,5.28
2018-03-22T15:23:32.652Z,5.26
2018-03-22T15:24:59.831Z,5.25
2018-03-22T15:26:27.075Z,5.23
2018-03-22T15:27:55.380Z,5.21
2018-03-22T15:29:21.561Z,5.16
2018-03-22T15:30:49.948Z,5.11
2018-03-22T15:32:15.984Z,5.03
2018-03-22T15:33:44.255Z,5.03
2018-03-22T15:35:10.264Z,5.00
2018-03-22T15:36:37.432Z,4.98
2018-03-22T15:38:04.704Z,4.94
2018-03-22T15:39:32.051Z,4.92
2018-03-22T15:40:59.198Z,4.92
2018-03-22T15:42:26.361Z,4.93
2018-03-22T15:43:54.654Z,4.94
2018-03-22T15:45:21.656Z,4.93
2018-03-22T15:46:48.924Z,4.93
2018-03-22T15:48:15.999Z,4.95
2018-03-22T15:49:42.087Z,4.93
2018-03-22T15:51:09.156Z,4.89
2018-03-22T15:52:37.516Z,4.82
2018-03-22T15:54:03.573Z,4.76
2018-03-22T15:55:31.009Z,4.77
2018-03-22T15:56:58.238Z,4.79
2018-03-22T15:58:25.324Z,4.80
2018-03-22T15:59:53.475Z,4.80
2018-03-22T16:01:20.544Z,4.82
2018-03-22T16:02:46.680Z,4.76
2018-03-22T16:04:14.892Z,4.72
2018-03-22T16:05:41.829Z,4.68
2018-03-22T16:07:08.087Z,4.65
2018-03-22T16:08:36.252Z,4.65
2018-03-22T16:10:03.472Z,4.63
2018-03-22T16:11:29.614Z,4.58
2018-03-22T16:12:56.933Z,4.60
2018-03-22T16:14:25.201Z,4.58
2018-03-22T16:15:51.386Z,4.58
2018-03-22T16:17:19.639Z,4.51
2018-03-22T16:18:45.918Z,4.45
2018-03-22T16:20:13.029Z,4.44
2018-03-22T16:21:41.203Z,4.43
2018-03-22T16:23:08.432Z,4.40
2018-03-22T16:24:35.806Z,4.40
2018-03-22T16:26:02.065Z,4.36
2018-03-22T16:27:30.296Z,4.38
2018-03-22T16:28:56.481Z,4.36
2018-03-22T16:30:24.610Z,4.34
2018-03-22T16:31:50.772Z,4.29
2018-03-22T16:33:18.885Z,4.31
2018-03-22T16:34:46.149Z,4.33
2018-03-22T16:36:13.047Z,4.29
2018-03-22T16:37:40.308Z,4.27
2018-03-22T16:39:07.578Z,4.24
2018-03-22T16:40:33.746Z,4.21
2018-03-22T16:42:01.064Z,4.21
2018-03-22T16:43:28.313Z,4.16
2018-03-22T16:44:56.624Z,4.15
2018-03-22T16:46:22.823Z,4.11
2018-03-22T16:47:50.081Z,4.09
2018-03-22T16:49:18.157Z,4.08
2018-03-22T16:50:44.209Z,4.09
2018-03-22T16:52:11.370Z,4.07
2018-03-22T16:53:38.726Z,4.05
2018-03-22T16:55:06.956Z,4.05
2018-03-22T16:56:34.130Z,4.01
2018-03-22T16:58:00.216Z,4.02
2018-03-22T16:59:27.513Z,4.02
2018-03-22T17:00:54.704Z,4.01
2018-03-22T17:02:21.793Z,4.01
2018-03-22T17:03:48.973Z,3.99
2018-03-22T17:05:16.143Z,3.98
2018-03-22T17:06:43.338Z,3.97
2018-03-22T17:08:10.417Z,3.92
2018-03-22T17:09:38.605Z,3.92
2018-03-22T17:11:05.940Z,3.94
2018-03-22T17:12:32.164Z,3.91
2018-03-22T17:14:00.435Z,3.94
2018-03-22T17:15:27.433Z,3.94
2018-03-22T17:16:53.589Z,3.96
2018-03-22T17:18:21.882Z,3.91
2018-03-22T17:19:49.113Z,3.89
2018-03-22T17:21:16.184Z,3.85
2018-03-22T17:22:42.360Z,3.82
2018-03-22T17:24:10.430Z,3.84
2018-03-22T17:25:36.735Z,3.83
2018-03-22T17:27:04.914Z,3.84
2018-03-22T17:28:30.935Z,3.86
2018-03-22T17:29:58.131Z,3.87
2018-03-22T17:31:26.376Z,3.84
2018-03-22T17:32:53.668Z,3.83
2018-03-22T17:34:19.827Z,3.82
2018-03-22T17:35:48.002Z,3.77
2018-03-22T17:37:14.148Z,3.78
2018-03-22T17:38:41.426Z,3.80
2018-03-22T17:40:08.577Z,3.76
2018-03-22T17:41:36.828Z,3.74
2018-03-22T17:43:04.090Z,3.73
2018-03-22T17:44:30.409Z,3.71
2018-03-22T17:45:58.600Z,3.71
2018-03-22T17:47:25.821Z,3.67
2018-03-22T17:48:52.037Z,3.62
2018-03-22T17:50:20.307Z,3.59
2018-03-22T17:51:46.525Z,3.55
2018-03-22T17:53:13.608Z,3.52
2018-03-22T17:54:40.749Z,3.49
2018-03-22T17:56:08.030Z,3.47
2018-03-22T17:57:36.243Z,3.46
2018-03-22T17:59:02.457Z,3.45
2018-03-22T18:00:29.383Z,3.44
2018-03-22T18:01:57.576Z,3.44
2018-03-22T18:03:24.748Z,3.44
2018-03-22T18:04:50.613Z,3.42
2018-03-22T18:06:17.843Z,3.40
2018-03-22T18:07:45.055Z,3.39
2018-03-22T18:09:13.184Z,3.39
2018-03-22T18:10:39.197Z,3.40
2018-03-22T18:12:06.498Z,3.39
2018-03-22T18:13:33.712Z,3.39
2018-03-22T18:15:00.802Z,3.42
2018-03-22T18:16:27.957Z,3.45
2018-03-22T18:17:55.126Z,3.45
2018-03-22T18:19:22.432Z,3.46
2018-03-22T18:20:50.626Z,3.48
2018-03-22T18:22:17.849Z,3.49
2018-03-22T18:23:45.120Z,3.51
2018-03-22T18:25:11.314Z,3.52
2018-03-22T18:26:38.620Z,3.54
2018-03-22T18:28:06.953Z,3.58
2018-03-22T18:29:34.071Z,3.59
2018-03-22T18:31:00.355Z,3.60
2018-03-22T18:32:28.572Z,3.64
2018-03-22T18:33:54.857Z,3.67
2018-03-22T18:35:21.994Z,3.68
2018-03-22T18:36:49.204Z,3.71
2018-03-22T18:38:16.375Z,3.75
2018-03-22T18:39:43.510Z,3.79
2018-03-22T18:41:10.655Z,3.82
2018-03-22T18:42:38.018Z,3.85
2018-03-22T18:44:06.280Z,3.85
2018-03-22T18:45:32.438Z,3.82
2018-03-22T18:46:59.818Z,3.83
2018-03-22T18:48:27.079Z,3.84
2018-03-22T18:49:55.301Z,3.86
2018-03-22T18:51:21.539Z,3.90
2018-03-22T18:52:49.710Z,3.94
2018-03-22T18:54:15.979Z,3.97
2018-03-22T18:55:43.258Z,3.97
2018-03-22T18:57:11.297Z,3.97
2018-03-22T18:58:37.468Z,3.96
2018-03-22T19:00:04.762Z,3.95
2018-03-22T19:01:31.970Z,3.95
2018-03-22T19:02:59.254Z,3.95
2018-03-22T19:04:26.543Z,3.92
2018-03-22T19:05:53.763Z,3.92
2018-03-22T19:07:21.026Z,3.90
2018-03-22T19:08:48.264Z,3.86
2018-03-22T19:10:16.560Z,3.86
2018-03-22T19:11:43.814Z,3.85
2018-03-22T19:13:10.966Z,3.87
2018-03-22T19:14:38.126Z,3.88
2018-03-22T19:16:05.333Z,3.86
2018-03-22T19:17:31.536Z,3.85
2018-03-22T19:18:58.863Z,3.83
2018-03-22T19:20:26.069Z,3.75